Time;durP1;ratioP1;P1;durP2;ratioP2;P2;SDS_P1;SDS_P2;PMS_P1;PMS_P2;Temp;Humidity;BMP_temperature;BMP_pressure;BME280_temperature;BME280_humidity;BME280_pressure;Samples;Min_cycle;Max_cycle;Signal;HPM_P1;HPM_P2
2021/01/09 00:01:37;;;;;;;6.83;3.47;;;;;;;-1.21;100.00;100882.50;5035190;28;20195;-79
2021/01/09 00:04:05;;;;;;;6.37;3.57;;;;;;;-1.21;100.00;100887.63;5017049;28;20204;-79
2021/01/09 00:06:35;;;;;;;6.13;3.90;;;;;;;-1.21;100.00;100890.19;5037512;28;20204;-80
2021/01/09 00:09:01;;;;;;;6.40;3.80;;;;;;;-1.22;100.00;100888.44;5034553;28;20265;-79
2021/01/09 00:11:29;;;;;;;5.47;3.47;;;;;;;-1.24;100.00;100890.09;5037315;28;20209;-79
2021/01/09 00:13:56;;;;;;;7.37;4.43;;;;;;;-1.24;100.00;100892.66;5031506;28;20568;-79
2021/01/09 00:16:21;;;;;;;6.50;3.93;;;;;;;-1.25;100.00;100893.47;5032519;28;20210;-80
2021/01/09 00:18:47;;;;;;;5.77;3.87;;;;;;;-1.25;100.00;100891.78;5014612;28;20207;-79
2021/01/09 00:21:13;;;;;;;6.07;3.37;;;;;;;-1.26;100.00;100895.16;5032313;28;20306;-80
2021/01/09 00:23:39;;;;;;;6.43;3.70;;;;;;;-1.25;100.00;100902.03;5034495;28;20220;-80
2021/01/09 00:26:05;;;;;;;5.00;3.20;;;;;;;-1.25;100.00;100896.03;5032818;28;20204;-80
2021/01/09 00:28:31;;;;;;;5.90;3.80;;;;;;;-1.25;100.00;100899.47;5034505;28;20203;-79
2021/01/09 00:30:57;;;;;;;7.30;4.33;;;;;;;-1.23;100.00;100900.38;5032045;28;20200;-80
2021/01/09 00:33:23;;;;;;;5.43;3.50;;;;;;;-1.25;100.00;100899.47;5033078;28;20231;-80
2021/01/09 00:35:49;;;;;;;6.70;3.80;;;;;;;-1.25;100.00;100904.59;5034018;28;20254;-78
2021/01/09 00:38:15;;;;;;;4.97;3.47;;;;;;;-1.26;100.00;100907.09;5035800;28;20461;-80
2021/01/09 00:40:41;;;;;;;5.73;3.17;;;;;;;-1.26;100.00;100912.22;5034905;28;20234;-79
2021/01/09 00:43:07;;;;;;;4.63;3.10;;;;;;;-1.26;100.00;100905.41;5039454;28;20218;-79
2021/01/09 00:45:32;;;;;;;4.90;3.10;;;;;;;-1.26;100.00;100902.84;5019107;28;20212;-79
2021/01/09 00:47:59;;;;;;;5.77;3.40;;;;;;;-1.26;100.00;100912.22;5040942;28;20199;-80
2021/01/09 00:50:25;;;;;;;5.03;3.67;;;;;;;-1.27;100.00;100910.47;5016097;28;20572;-80
2021/01/09 00:52:51;;;;;;;4.13;3.10;;;;;;;-1.28;100.00;100913.88;5038426;28;20229;-80
2021/01/09 00:55:17;;;;;;;6.03;4.07;;;;;;;-1.28;100.00;100916.44;5033500;28;20246;-79
2021/01/09 00:57:42;;;;;;;5.93;3.47;;;;;;;-1.30;100.00;100915.50;5036053;28;20210;-80
2021/01/09 01:00:09;;;;;;;7.27;3.60;;;;;;;-1.30;100.00;100921.50;5038656;28;20273;-80
2021/01/09 01:02:35;;;;;;;6.63;3.90;;;;;;;-1.31;100.00;100924.88;5037275;28;20249;-80
2021/01/09 01:05:02;;;;;;;7.10;3.70;;;;;;;-1.31;100.00;100932.56;5037506;28;20459;-80
2021/01/09 01:07:28;;;;;;;6.37;4.00;;;;;;;-1.29;100.00;100933.44;5034809;28;20212;-80
2021/01/09 01:09:54;;;;;;;6.93;4.27;;;;;;;-1.29;100.00;100928.34;5031344;28;20215;-80
2021/01/09 01:12:20;;;;;;;6.57;4.30;;;;;;;-1.30;100.00;100931.75;5032291;28;20224;-79
2021/01/09 01:14:46;;;;;;;5.83;3.67;;;;;;;-1.31;100.00;100935.09;5037052;28;20219;-79
2021/01/09 01:17:12;;;;;;;7.33;3.70;;;;;;;-1.30;100.00;100930.84;5030706;28;20196;-79
2021/01/09 01:19:37;;;;;;;6.83;4.00;;;;;;;-1.30;100.00;100939.41;5036602;28;20258;-80
2021/01/09 01:22:04;;;;;;;9.23;4.83;;;;;;;-1.29;100.00;100945.38;5032271;28;20216;-80
2021/01/09 01:24:30;;;;;;;11.07;4.70;;;;;;;-1.31;100.00;100941.94;5035624;28;20734;-80
2021/01/09 01:26:56;;;;;;;7.83;4.40;;;;;;;-1.30;100.00;100941.09;5033753;28;20208;-79
2021/01/09 01:29:21;;;;;;;8.53;5.10;;;;;;;-1.31;100.00;100937.66;5031895;28;20463;-79
2021/01/09 01:31:47;;;;;;;9.67;5.23;;;;;;;-1.31;100.00;100939.38;5030647;28;20208;-79
2021/01/09 01:34:13;;;;;;;9.87;5.33;;;;;;;-1.30;100.00;100943.63;5035759;28;20204;-80
2021/01/09 01:36:39;;;;;;;10.27;5.13;;;;;;;-1.29;100.00;100935.16;5036154;28;20250;-80
2021/01/09 01:39:06;;;;;;;10.77;5.60;;;;;;;-1.31;100.00;100936.81;5032864;28;20200;-79
2021/01/09 01:41:31;;;;;;;11.03;5.73;;;;;;;-1.33;100.00;100940.19;5029280;28;20199;-80
2021/01/09 01:43:57;;;;;;;11.40;5.73;;;;;;;-1.31;100.00;100934.25;5016860;28;20235;-80
2021/01/09 01:46:23;;;;;;;10.47;5.60;;;;;;;-1.31;100.00;100939.38;5031799;28;20210;-80
2021/01/09 01:48:49;;;;;;;11.67;6.07;;;;;;;-1.31;100.00;100939.38;5031065;28;20456;-80
2021/01/09 01:51:16;;;;;;;10.00;5.77;;;;;;;-1.30;100.00;100944.53;5040065;28;20195;-80
2021/01/09 01:53:42;;;;;;;12.63;6.50;;;;;;;-1.31;100.00;100945.34;5034740;28;20224;-80
2021/01/09 01:56:09;;;;;;;11.83;6.50;;;;;;;-1.32;100.00;100943.59;5036068;28;20204;-80
2021/01/09 01:58:35;;;;;;;12.53;6.30;;;;;;;-1.31;100.00;100940.22;5033409;28;20328;-80
2021/01/09 02:01:01;;;;;;;11.07;5.63;;;;;;;-1.30;100.00;100941.09;5036135;28;20200;-79
2021/01/09 02:03:27;;;;;;;11.27;5.87;;;;;;;-1.31;100.00;100942.78;5033351;28;20219;-80
2021/01/09 02:05:58;;;;;;;9.30;5.40;;;;;;;-1.29;100.00;100945.38;5034480;28;20204;-80
2021/01/09 02:08:29;;;;;;;11.43;5.80;;;;;;;-1.29;100.00;100946.25;5035547;28;20223;-79
2021/01/09 02:10:58;;;;;;;12.27;5.87;;;;;;;-1.30;100.00;100946.19;5035092;28;20204;-80
2021/01/09 02:13:33;;;;;;;11.47;6.33;;;;;;;-1.29;100.00;100943.69;5035879;28;20227;-80
2021/01/09 02:16:00;;;;;;;11.63;6.13;;;;;;;-1.29;100.00;100950.50;5033375;28;20207;-80
2021/01/09 02:18:26;;;;;;;11.27;5.90;;;;;;;-1.28;100.00;100947.13;5031640;28;20216;-80
2021/01/09 02:21:04;;;;;;;9.70;5.70;;;;;;;-1.29;100.00;100947.94;5019741;28;20212;-80
2021/01/09 02:23:31;;;;;;;9.77;5.63;;;;;;;-1.29;100.00;100951.38;5021925;28;20250;-80
2021/01/09 02:25:57;;;;;;;10.23;5.53;;;;;;;-1.30;100.00;100947.09;5027321;28;20200;-80
2021/01/09 02:28:23;;;;;;;10.27;5.47;;;;;;;-1.29;100.00;100950.50;5019807;28;20285;-80
2021/01/09 02:30:49;;;;;;;11.57;6.30;;;;;;;-1.28;100.00;100944.56;5026101;28;20504;-80
2021/01/09 02:33:18;;;;;;;9.63;5.60;;;;;;;-1.27;100.00;100943.72;5026915;28;20282;-80
2021/01/09 02:35:45;;;;;;;10.20;5.90;;;;;;;-1.29;100.00;100942.84;5024429;28;20203;-79
2021/01/09 02:38:12;;;;;;;9.47;5.80;;;;;;;-1.29;100.00;100945.38;5034381;28;20204;-79
2021/01/09 02:40:43;;;;;;;11.00;6.33;;;;;;;-1.30;100.00;100948.75;5022520;28;20204;-80
2021/01/09 02:43:12;;;;;;;12.00;6.30;;;;;;;-1.28;100.00;100952.25;5025015;28;20285;-80
2021/01/09 02:45:39;;;;;;;12.20;6.27;;;;;;;-1.30;100.00;100954.75;5025660;28;20196;-80
2021/01/09 02:48:06;;;;;;;11.13;6.17;;;;;;;-1.29;100.00;100953.06;5026252;28;20299;-80
2021/01/09 02:50:31;;;;;;;11.83;6.77;;;;;;;-1.30;100.00;100954.75;5008885;28;20755;-80
2021/01/09 02:52:58;;;;;;;11.70;6.60;;;;;;;-1.29;100.00;100960.75;5026371;28;20228;-80
2021/01/09 02:55:23;;;;;;;12.17;6.77;;;;;;;-1.31;100.00;100958.13;5002726;28;20992;-80
2021/01/09 02:57:50;;;;;;;11.87;6.33;;;;;;;-1.29;100.00;100960.75;5022723;28;20219;-80
2021/01/09 03:00:18;;;;;;;12.13;6.70;;;;;;;-1.28;100.00;100957.38;5026296;28;20204;-80
2021/01/09 03:02:43;;;;;;;13.90;7.33;;;;;;;-1.28;100.00;100954.81;5028823;28;20225;-80
2021/01/09 03:05:10;;;;;;;14.40;6.90;;;;;;;-1.29;100.00;100956.47;5027719;28;20249;-80
2021/01/09 03:07:36;;;;;;;9.77;5.87;;;;;;;-1.28;100.00;100958.22;5042184;28;20208;-79
2021/01/09 03:10:03;;;;;;;10.93;5.83;;;;;;;-1.28;100.00;100965.03;5046518;28;20210;-80
2021/01/09 03:12:29;;;;;;;10.50;6.27;;;;;;;-1.28;100.00;100958.22;5040886;28;20234;-80
2021/01/09 03:14:55;;;;;;;13.17;6.60;;;;;;;-1.27;100.00;100965.06;5044480;28;20193;-80
2021/01/09 03:17:21;;;;;;;11.67;6.37;;;;;;;-1.27;100.00;100966.75;5037401;28;20210;-80
2021/01/09 03:19:47;;;;;;;12.07;6.27;;;;;;;-1.26;100.00;100971.91;5038205;28;20204;-80
2021/01/09 03:22:15;;;;;;;12.17;6.50;;;;;;;-1.27;100.00;100972.72;5034909;28;20228;-79
2021/01/09 03:24:41;;;;;;;11.33;6.37;;;;;;;-1.25;100.00;100973.66;5037100;28;20258;-80
2021/01/09 03:27:07;;;;;;;11.47;6.43;;;;;;;-1.24;100.00;100969.41;5037815;28;20709;-80
2021/01/09 03:29:32;;;;;;;12.57;6.50;;;;;;;-1.25;100.00;100973.66;5038418;28;20211;-80
2021/01/09 03:31:59;;;;;;;12.43;7.10;;;;;;;-1.23;100.00;100971.13;5040369;28;20224;-80
2021/01/09 03:34:25;;;;;;;13.87;7.40;;;;;;;-1.22;100.00;100967.75;5037928;28;20219;-80
2021/01/09 03:37:03;;;;;;;12.00;6.20;;;;;;;-1.22;100.00;100973.72;5044297;28;20200;-80
2021/01/09 03:39:29;;;;;;;10.90;6.30;;;;;;;-1.22;100.00;100968.63;5035033;28;20253;-80
2021/01/09 03:41:55;;;;;;;12.67;6.73;;;;;;;-1.19;100.00;100967.84;5039061;28;20227;-80
2021/01/09 03:44:20;;;;;;;11.07;6.50;;;;;;;-1.19;100.00;100971.25;5037092;28;20208;-80
2021/01/09 03:46:46;;;;;;;12.43;6.40;;;;;;;-1.18;100.00;100975.56;5047229;28;20203;-80
2021/01/09 03:49:13;;;;;;;11.87;6.10;;;;;;;-1.18;100.00;100977.25;5037345;28;20230;-80
2021/01/09 03:51:39;;;;;;;10.83;6.43;;;;;;;-1.18;100.00;100977.25;5042693;28;20207;-80
2021/01/09 03:54:05;;;;;;;13.83;6.93;;;;;;;-1.17;100.00;100981.53;5039193;28;20220;-80
2021/01/09 03:56:31;;;;;;;11.60;6.60;;;;;;;-1.19;100.00;100976.38;5023570;28;20203;-80
2021/01/09 03:58:58;;;;;;;12.10;6.70;;;;;;;-1.18;100.00;100980.69;5038034;28;20212;-80
2021/01/09 04:01:24;;;;;;;14.73;7.27;;;;;;;-1.17;100.00;100984.09;5039034;28;20203;-80
2021/01/09 04:03:50;;;;;;;12.77;7.00;;;;;;;-1.17;100.00;100978.97;5040967;28;20223;-80
2021/01/09 04:06:16;;;;;;;13.03;7.57;;;;;;;-1.18;100.00;100975.56;5022626;28;20216;-80
2021/01/09 04:08:42;;;;;;;13.80;7.03;;;;;;;-1.16;100.00;100983.28;5039585;28;20200;-80
2021/01/09 04:11:08;;;;;;;13.90;7.87;;;;;;;-1.18;100.00;100992.59;5038322;28;20211;-80
2021/01/09 04:13:34;;;;;;;13.33;7.17;;;;;;;-1.18;100.00;100993.47;5039505;28;20277;-80
2021/01/09 04:16:02;;;;;;;13.17;7.57;;;;;;;-1.17;100.00;100994.34;5019353;28;20199;-80
2021/01/09 04:18:28;;;;;;;13.57;7.53;;;;;;;-1.18;100.00;100984.91;5043031;28;20250;-80
2021/01/09 04:20:53;;;;;;;14.17;7.20;;;;;;;-1.18;100.00;100985.81;5037255;28;20192;-80
2021/01/09 04:23:20;;;;;;;11.67;6.63;;;;;;;-1.18;100.00;100988.38;5048933;28;20509;-80
2021/01/09 04:25:46;;;;;;;17.70;8.60;;;;;;;-1.17;100.00;100986.66;5037452;28;20208;-80
2021/01/09 04:28:12;;;;;;;14.90;7.70;;;;;;;-1.19;100.00;100990.88;5041980;28;20520;-81
2021/01/09 04:30:38;;;;;;;15.10;8.13;;;;;;;-1.20;100.00;100989.13;5038520;28;20547;-80
2021/01/09 04:33:04;;;;;;;16.43;7.40;;;;;;;-1.20;100.00;100994.25;5042108;28;20243;-80
2021/01/09 04:35:29;;;;;;;13.43;7.13;;;;;;;-1.18;100.00;100987.47;5036120;28;20207;-81
2021/01/09 04:37:55;;;;;;;12.67;7.33;;;;;;;-1.19;100.00;100986.63;5039972;28;20212;-82
2021/01/09 04:40:22;;;;;;;14.37;7.60;;;;;;;-1.18;100.00;100990.91;5039822;28;20203;-82
2021/01/09 04:42:48;;;;;;;15.57;8.20;;;;;;;-1.20;100.00;100995.09;5039016;28;20282;-82
2021/01/09 04:45:14;;;;;;;13.63;7.17;;;;;;;-1.19;100.00;100999.41;5034647;28;20231;-82
2021/01/09 04:47:41;;;;;;;14.17;7.10;;;;;;;-1.20;100.00;100995.09;5038561;28;20212;-82
2021/01/09 04:50:08;;;;;;;17.63;8.07;;;;;;;-1.23;100.00;100994.16;5023112;28;20215;-82
2021/01/09 04:52:36;;;;;;;15.23;7.93;;;;;;;-1.27;100.00;100987.22;5037939;28;20216;-82
2021/01/09 04:55:03;;;;;;;14.17;7.60;;;;;;;-1.31;100.00;100993.94;5042056;28;20207;-82
2021/01/09 04:57:31;;;;;;;16.13;8.20;;;;;;;-1.36;100.00;100988.69;5015862;28;20623;-79
2021/01/09 04:59:57;;;;;;;14.57;7.80;;;;;;;-1.39;100.00;100992.84;5036804;28;20204;-79
2021/01/09 05:02:24;;;;;;;14.70;7.77;;;;;;;-1.45;100.00;100987.59;5013327;28;20241;-79
2021/01/09 05:04:49;;;;;;;12.37;6.67;;;;;;;-1.49;100.00;100990.88;5038047;28;20214;-79
2021/01/09 05:07:15;;;;;;;14.07;7.50;;;;;;;-1.54;100.00;100996.72;5033103;28;20231;-79
2021/01/09 05:09:43;;;;;;;14.83;7.07;;;;;;;-1.56;100.00;100997.50;5035761;28;20676;-79
2021/01/09 05:12:10;;;;;;;13.50;7.87;;;;;;;-1.62;100.00;101008.44;5014801;28;20227;-79
2021/01/09 05:14:38;;;;;;;17.40;7.43;;;;;;;-1.66;100.00;101009.13;5036665;28;20230;-79
2021/01/09 05:17:04;;;;;;;15.10;8.23;;;;;;;-1.72;100.00;101009.84;5032628;28;20218;-79
2021/01/09 05:19:30;;;;;;;14.50;7.27;;;;;;;-1.78;100.00;101006.22;5036064;28;20200;-79
2021/01/09 05:21:57;;;;;;;12.27;7.07;;;;;;;-1.84;100.00;101014.56;5032905;28;20216;-79
2021/01/09 05:24:24;;;;;;;15.17;8.03;;;;;;;-1.88;100.00;101012.75;5034046;28;20196;-79
2021/01/09 05:26:51;;;;;;;13.17;6.90;;;;;;;-1.93;100.00;101021.97;5034977;28;20246;-79
2021/01/09 05:29:17;;;;;;;13.33;6.97;;;;;;;-1.98;100.00;101015.84;5032645;28;20211;-79
2021/01/09 05:31:44;;;;;;;14.63;7.30;;;;;;;-2.02;100.00;101014.88;5032222;28;20204;-79
2021/01/09 05:34:10;;;;;;;12.13;6.53;;;;;;;-2.04;100.00;101021.63;5015946;28;20224;-79
2021/01/09 05:36:36;;;;;;;12.40;6.73;;;;;;;-2.05;100.00;101019.88;5037760;28;20200;-80
2021/01/09 05:39:03;;;;;;;12.00;6.83;;;;;;;-2.07;100.00;101024.09;5032181;28;20200;-79
2021/01/09 05:41:29;;;;;;;14.87;7.77;;;;;;;-2.11;100.00;101023.13;5036107;28;20851;-79
2021/01/09 05:44:00;;;;;;;14.80;7.33;;;;;;;-2.10;100.00;101027.38;5037726;28;20434;-81
2021/01/09 05:46:29;;;;;;;12.40;5.97;;;;;;;-2.10;100.00;101024.84;5039415;28;20581;-82
2021/01/09 05:48:56;;;;;;;11.60;6.37;;;;;;;-2.08;100.00;101035.13;5022342;28;20218;-82
2021/01/09 05:51:22;;;;;;;12.37;7.17;;;;;;;-2.06;100.00;101030.91;5038858;28;20192;-82
2021/01/09 05:53:49;;;;;;;12.00;6.17;;;;;;;-2.06;100.00;101035.16;5036234;28;20219;-82
2021/01/09 05:56:17;;;;;;;13.40;6.33;;;;;;;-2.06;100.00;101040.28;5043922;28;20192;-82
2021/01/09 05:58:43;;;;;;;11.23;6.10;;;;;;;-2.03;100.00;101037.81;5040795;28;20262;-82
2021/01/09 06:01:10;;;;;;;12.33;6.27;;;;;;;-1.98;100.00;101038.84;5037280;28;20200;-82
2021/01/09 06:03:41;;;;;;;13.53;6.90;;;;;;;-1.95;100.00;101044.91;5040266;28;20234;-82
2021/01/09 06:06:42;;;;;;;13.53;6.90;;;;;;;-1.91;100.00;101051.84;5037585;28;20200;-82
2021/01/09 06:09:10;;;;;;;12.67;6.70;;;;;;;-1.86;100.00;101049.44;5037569;28;20204;-82
2021/01/09 06:11:38;;;;;;;13.57;6.60;;;;;;;-1.84;100.00;101047.81;5040278;28;20203;-82
2021/01/09 06:14:07;;;;;;;14.77;7.47;;;;;;;-1.82;100.00;101046.16;5038339;28;20302;-82
2021/01/09 06:16:35;;;;;;;14.70;6.67;;;;;;;-1.78;100.00;101052.22;5039665;28;20203;-82
2021/01/09 06:19:02;;;;;;;13.50;7.37;;;;;;;-1.77;100.00;101053.97;5040924;28;20200;-82
2021/01/09 06:21:29;;;;;;;15.27;6.83;;;;;;;-1.75;100.00;101053.19;5039441;28;20199;-82
2021/01/09 06:23:57;;;;;;;14.37;7.30;;;;;;;-1.70;100.00;101057.59;5041164;28;20230;-82
2021/01/09 06:26:25;;;;;;;13.53;7.00;;;;;;;-1.70;100.00;101058.47;5036865;28;20204;-82
2021/01/09 06:28:56;;;;;;;13.00;7.27;;;;;;;-1.68;100.00;101061.06;5033259;28;20202;-82
2021/01/09 06:31:25;;;;;;;12.73;6.67;;;;;;;-1.67;100.00;101063.69;5036256;28;20222;-81
2021/01/09 06:33:52;;;;;;;12.63;7.03;;;;;;;-1.65;100.00;101066.25;5041975;28;20207;-82
2021/01/09 06:36:20;;;;;;;12.13;6.50;;;;;;;-1.65;100.00;101069.69;5044323;28;20188;-82
2021/01/09 06:38:48;;;;;;;13.60;6.80;;;;;;;-1.62;100.00;101076.59;5057543;28;20180;-82
2021/01/09 06:41:16;;;;;;;11.70;6.87;;;;;;;-1.61;100.00;101078.34;5046764;28;20188;-81
2021/01/09 06:43:44;;;;;;;16.13;7.83;;;;;;;-1.60;100.00;101082.59;5049626;28;21391;-81
2021/01/09 06:46:12;;;;;;;14.37;7.10;;;;;;;-1.61;100.00;101081.75;5047146;28;20196;-81
2021/01/09 06:48:38;;;;;;;14.37;7.63;;;;;;;-1.59;100.00;101087.78;5039769;28;20211;-82
2021/01/09 06:51:41;;;;;;;15.07;7.67;;;;;;;-1.58;100.00;101092.09;5036763;28;20204;-80
2021/01/09 06:54:20;;;;;;;13.43;7.27;;;;;;;-1.57;100.00;101091.25;5040672;28;20227;-81
2021/01/09 06:56:48;;;;;;;15.30;7.90;;;;;;;-1.56;100.00;101089.56;5039851;28;20204;-81
2021/01/09 06:59:31;;;;;;;15.43;7.90;;;;;;;-1.55;100.00;101093.84;5037790;28;20196;-81
2021/01/09 07:02:22;;;;;;;13.33;6.80;;;;;;;-1.50;100.00;101099.13;5024444;28;20928;-81
2021/01/09 07:05:02;;;;;;;12.70;6.97;;;;;;;-1.51;100.00;101105.94;5029947;28;20223;-81
2021/01/09 07:07:31;;;;;;;12.57;6.77;;;;;;;-1.49;100.00;101105.97;5038263;28;20242;-81
2021/01/09 07:10:00;;;;;;;18.13;9.13;;;;;;;-1.51;100.00;101113.59;5045443;28;20191;-81
2021/01/09 07:12:29;;;;;;;15.33;8.57;;;;;;;-1.49;100.00;101105.97;5039794;28;20283;-81
2021/01/09 07:15:01;;;;;;;12.37;7.10;;;;;;;-1.47;100.00;101106.91;5026220;28;20224;-81
2021/01/09 07:17:27;;;;;;;16.30;7.90;;;;;;;-1.49;100.00;101101.72;5036594;28;20250;-80
2021/01/09 07:19:53;;;;;;;16.60;7.93;;;;;;;-1.46;100.00;101114.63;5040007;28;20803;-80
2021/01/09 07:22:20;;;;;;;14.07;7.23;;;;;;;-1.46;100.00;101109.50;5038361;28;20223;-80
2021/01/09 07:24:47;;;;;;;15.90;8.37;;;;;;;-1.47;100.00;101114.56;5040524;28;20210;-80
2021/01/09 07:27:17;;;;;;;14.47;7.43;;;;;;;-1.44;100.00;101120.66;5038210;28;20200;-80
2021/01/09 07:29:44;;;;;;;15.67;8.37;;;;;;;-1.44;100.00;101128.31;5041585;28;20196;-80
2021/01/09 07:32:10;;;;;;;16.70;7.77;;;;;;;-1.43;100.00;101127.47;5036533;28;20230;-80
2021/01/09 07:34:36;;;;;;;13.87;7.27;;;;;;;-1.42;100.00;101134.34;5036388;28;20267;-80
2021/01/09 07:37:03;;;;;;;14.20;7.23;;;;;;;-1.39;100.00;101133.56;5043828;28;20229;-80
2021/01/09 07:39:29;;;;;;;15.37;7.93;;;;;;;-1.41;100.00;101136.06;5039007;28;20200;-80
2021/01/09 07:41:56;;;;;;;15.40;7.57;;;;;;;-1.37;100.00;101139.63;5043836;28;20216;-80
2021/01/09 07:44:23;;;;;;;15.97;8.27;;;;;;;-1.36;100.00;101134.53;5040404;28;20215;-80
2021/01/09 07:46:55;;;;;;;16.70;8.17;;;;;;;-1.34;100.00;101144.81;5039418;28;20223;-80
2021/01/09 07:49:26;;;;;;;16.47;8.63;;;;;;;-1.31;100.00;101146.59;5039883;28;20203;-80
2021/01/09 07:51:53;;;;;;;19.17;8.30;;;;;;;-1.32;100.00;101148.28;5042285;28;20250;-81
2021/01/09 07:54:37;;;;;;;15.20;7.90;;;;;;;-1.31;100.00;101149.16;5037593;28;20215;-80
2021/01/09 07:57:04;;;;;;;15.80;7.40;;;;;;;-1.30;100.00;101146.66;5038166;28;20434;-80
2021/01/09 07:59:29;;;;;;;17.47;8.27;;;;;;;-1.30;100.00;101150.88;5040078;28;20211;-80
2021/01/09 08:01:56;;;;;;;14.93;7.73;;;;;;;-1.28;100.00;101149.25;5040549;28;20347;-80
2021/01/09 08:04:22;;;;;;;14.73;7.67;;;;;;;-1.27;100.00;101151.84;5040866;28;20234;-79
2021/01/09 08:06:48;;;;;;;15.40;7.30;;;;;;;-1.25;100.00;101157.00;5039558;28;20204;-80
2021/01/09 08:09:14;;;;;;;22.43;10.60;;;;;;;-1.23;100.00;101165.59;5042321;28;20200;-80
2021/01/09 08:11:40;;;;;;;24.03;12.87;;;;;;;-1.23;100.00;101158.81;5043031;28;20392;-80
2021/01/09 08:14:07;;;;;;;21.17;11.47;;;;;;;-1.22;100.00;101165.66;5039088;28;20323;-80
2021/01/09 08:16:32;;;;;;;29.20;13.00;;;;;;;-1.19;100.00;101170.00;5039546;28;20231;-80
2021/01/09 08:19:14;;;;;;;47.13;20.53;;;;;;;-1.19;100.00;101167.44;5041601;28;20661;-80
2021/01/09 08:21:40;;;;;;;35.77;16.03;;;;;;;-1.20;100.00;101174.22;5039942;28;20210;-80
2021/01/09 08:24:07;;;;;;;22.57;11.27;;;;;;;-1.18;100.00;101177.72;5041769;28;20195;-80
2021/01/09 08:26:33;;;;;;;17.43;9.30;;;;;;;-1.16;100.00;101175.22;5038884;28;20207;-80
2021/01/09 08:28:59;;;;;;;16.97;9.03;;;;;;;-1.16;100.00;101181.19;5049712;28;20222;-80
2021/01/09 08:31:25;;;;;;;20.40;8.80;;;;;;;-1.13;100.00;101185.53;5038014;28;20257;-80
2021/01/09 08:33:51;;;;;;;20.67;9.53;;;;;;;-1.12;100.00;101183.88;5030738;28;20216;-80
2021/01/09 08:36:20;;;;;;;16.57;9.20;;;;;;;-1.10;100.00;101182.22;5039962;28;20218;-80
2021/01/09 08:38:47;;;;;;;18.50;8.47;;;;;;;-1.09;100.00;101183.94;5041998;28;20212;-80
2021/01/09 08:41:13;;;;;;;18.87;9.67;;;;;;;-1.07;100.00;101188.28;5037718;28;20203;-80
2021/01/09 08:43:38;;;;;;;21.63;10.87;;;;;;;-1.05;100.00;101198.59;5042467;28;20562;-80
2021/01/09 08:46:04;;;;;;;19.63;9.03;;;;;;;-1.04;100.00;101193.50;5039847;28;20275;-80
2021/01/09 08:48:35;;;;;;;18.83;8.90;;;;;;;-1.01;100.00;101192.72;5041240;28;20212;-80
2021/01/09 08:51:04;;;;;;;21.80;11.07;;;;;;;-0.98;100.00;101203.06;5041899;28;20208;-80
2021/01/09 08:53:51;;;;;;;24.53;12.30;;;;;;;-0.96;100.00;101201.41;5017454;28;20227;-80
2021/01/09 08:56:19;;;;;;;24.17;12.07;;;;;;;-0.92;100.00;101210.91;5037028;28;20683;-80
2021/01/09 08:58:46;;;;;;;23.83;10.43;;;;;;;-0.89;100.00;101207.59;5038903;28;20762;-80
2021/01/09 09:01:14;;;;;;;19.60;9.77;;;;;;;-0.88;100.00;101209.31;5034448;28;20450;-80
2021/01/09 09:03:43;;;;;;;30.57;13.90;;;;;;;-0.87;100.00;101216.19;5037119;28;20272;-80
2021/01/09 09:06:13;;;;;;;27.47;12.17;;;;;;;-0.84;100.00;101222.25;5039204;28;20207;-80
2021/01/09 09:08:40;;;;;;;22.30;11.03;;;;;;;-0.84;100.00;101218.84;5040208;28;20193;-80
2021/01/09 09:11:07;;;;;;;19.67;9.67;;;;;;;-0.85;100.00;101219.66;5039232;28;20376;-80
2021/01/09 09:13:33;;;;;;;18.43;9.93;;;;;;;-0.81;100.00;101221.47;5037595;28;20224;-80
2021/01/09 09:16:15;;;;;;;18.57;9.60;;;;;;;-0.83;100.00;101225.69;5043169;28;20207;-80
2021/01/09 09:18:41;;;;;;;18.50;9.27;;;;;;;-0.82;100.00;101224.88;5037998;28;20203;-80
2021/01/09 09:21:09;;;;;;;18.73;11.10;;;;;;;-0.80;100.00;101228.34;5036436;28;20235;-80
2021/01/09 09:23:35;;;;;;;19.37;10.03;;;;;;;-0.76;100.00;101227.59;5037651;28;20224;-80
2021/01/09 09:26:10;;;;;;;16.70;9.30;;;;;;;-0.79;100.00;101222.41;5039984;28;20204;-80
2021/01/09 09:28:47;;;;;;;18.47;9.47;;;;;;;-0.76;100.00;101230.16;5039765;28;20207;-80
2021/01/09 09:31:25;;;;;;;19.47;9.57;;;;;;;-0.73;100.00;101229.41;5037994;28;20211;-80
2021/01/09 09:34:02;;;;;;;19.03;9.03;;;;;;;-0.74;100.00;101228.50;5019075;28;20687;-80
2021/01/09 09:36:28;;;;;;;17.17;8.83;;;;;;;-0.72;100.00;101228.56;5039305;28;20520;-80
2021/01/09 09:38:55;;;;;;;14.50;8.80;;;;;;;-0.76;100.00;101225.03;5037021;28;20270;-80
2021/01/09 09:41:21;;;;;;;15.23;7.70;;;;;;;-0.74;100.00;101227.66;5023400;28;20561;-80
2021/01/09 09:43:55;;;;;;;15.63;8.23;;;;;;;-0.73;100.00;101220.03;5037742;28;20327;-80
2021/01/09 09:46:21;;;;;;;16.83;8.53;;;;;;;-0.73;100.00;101222.56;5039217;28;20277;-80
2021/01/09 09:48:47;;;;;;;18.63;9.13;;;;;;;-0.74;100.00;101215.69;5039396;28;20203;-80
2021/01/09 09:51:14;;;;;;;16.63;8.53;;;;;;;-0.69;100.00;101216.72;5038812;28;20317;-80
2021/01/09 09:53:42;;;;;;;16.77;8.40;;;;;;;-0.66;100.00;101211.69;5038545;28;20227;-80
2021/01/09 09:56:12;;;;;;;16.33;8.43;;;;;;;-0.63;100.00;101211.78;5034099;28;20204;-80
2021/01/09 09:58:39;;;;;;;18.43;9.20;;;;;;;-0.61;100.00;101222.94;5022527;28;20205;-80
2021/01/09 10:01:15;;;;;;;15.87;8.23;;;;;;;-0.61;100.00;101214.41;5036757;28;20201;-80
2021/01/09 10:03:41;;;;;;;16.90;9.07;;;;;;;-0.57;100.00;101219.63;5042337;28;20224;-80
2021/01/09 10:06:07;;;;;;;14.90;8.23;;;;;;;-0.57;100.00;101219.63;5041590;28;20193;-80
2021/01/09 10:08:33;;;;;;;17.07;8.50;;;;;;;-0.58;100.00;101217.91;5045209;28;20206;-80
2021/01/09 10:10:59;;;;;;;16.13;8.40;;;;;;;-0.55;100.00;101221.38;5023836;28;20228;-80
2021/01/09 10:13:26;;;;;;;16.30;8.20;;;;;;;-0.57;100.00;101216.22;5046024;28;20224;-80
2021/01/09 10:15:53;;;;;;;14.20;8.00;;;;;;;-0.59;100.00;101215.31;5020973;28;20508;-80
2021/01/09 10:18:19;;;;;;;16.13;8.40;;;;;;;-0.55;100.00;101213.69;5035906;28;20499;-80
2021/01/09 10:20:44;;;;;;;14.67;8.00;;;;;;;-0.54;100.00;101218.88;5020486;28;20201;-80
2021/01/09 10:23:10;;;;;;;17.43;9.60;;;;;;;-0.53;100.00;101220.59;5036647;28;20270;-80
2021/01/09 10:25:36;;;;;;;16.80;10.30;;;;;;;-0.50;100.00;101218.13;5036236;28;20887;-80
2021/01/09 10:28:02;;;;;;;16.87;10.53;;;;;;;-0.48;100.00;101215.59;5036491;28;20584;-80
2021/01/09 10:30:28;;;;;;;15.63;9.63;;;;;;;-0.50;100.00;101218.13;5034930;28;20661;-80
2021/01/09 10:32:57;;;;;;;16.30;8.83;;;;;;;-0.51;100.00;101220.63;5034654;28;20217;-80
2021/01/09 10:35:22;;;;;;;16.63;8.93;;;;;;;-0.53;100.00;101217.16;5026631;28;20227;-80
2021/01/09 10:37:48;;;;;;;15.57;8.83;;;;;;;-0.55;100.00;101218.81;5038500;28;20391;-80
2021/01/09 10:40:14;;;;;;;15.97;8.83;;;;;;;-0.54;100.00;101220.56;5040137;28;20203;-80
2021/01/09 10:42:40;;;;;;;14.23;7.80;;;;;;;-0.51;100.00;101223.19;5039580;28;20217;-80
2021/01/09 10:45:07;;;;;;;15.03;8.27;;;;;;;-0.50;100.00;101223.25;5041309;28;20201;-80
2021/01/09 10:47:33;;;;;;;13.07;7.33;;;;;;;-0.48;100.00;101218.16;5037544;28;20213;-80
2021/01/09 10:50:00;;;;;;;15.43;7.43;;;;;;;-0.48;100.00;101215.59;5042065;28;20204;-80
2021/01/09 10:52:25;;;;;;;15.03;8.03;;;;;;;-0.44;100.00;101217.41;5034127;28;20261;-80
2021/01/09 10:54:51;;;;;;;13.00;8.00;;;;;;;-0.41;100.00;101213.25;5039423;28;20212;-80
2021/01/09 10:57:17;;;;;;;15.90;8.10;;;;;;;-0.43;99.44;101217.47;5040340;28;20212;-80
2021/01/09 10:59:43;;;;;;;16.63;9.53;;;;;;;-0.35;99.82;101221.94;5040955;28;20200;-80
2021/01/09 11:02:09;;;;;;;15.33;8.53;;;;;;;-0.30;99.91;101220.38;5020811;28;20232;-80
2021/01/09 11:04:35;;;;;;;14.00;7.37;;;;;;;-0.28;100.00;101224.72;5041623;28;20216;-80
2021/01/09 11:07:02;;;;;;;12.13;7.23;;;;;;;-0.25;100.00;101219.66;5039741;28;20211;-80
2021/01/09 11:09:27;;;;;;;14.80;7.70;;;;;;;-0.24;99.79;101223.97;5037647;28;20266;-79
2021/01/09 11:11:54;;;;;;;14.53;7.80;;;;;;;-0.20;100.00;101225.78;5041644;28;20216;-80